Terminal Aerodrome Forecast
Issued by NWS

Home | Current Version | Previous Version | Graphics & Text | Print | Product List | Glossary On
Versions: 1 2 3 4 5 6 7 8 9 10 11 12 13 14
279
FTUS42 KMHX 221303 AAA
TAFISO
TAF AMD
KISO 221303Z 2213/2312 36005KT P6SM OVC035
     FM221400 36010G19KT P6SM BKN040
     FM221500 01014G26KT P6SM SCT050
     FM222200 02004KT P6SM SKC
      AMD LTD TO CLD VIS AND WIND=

USA.gov is the U.S. government's official web portal to all federal, state and local government web resources and services.